Time;durP1;ratioP1;P1;durP2;ratioP2;P2;SDS_P1;SDS_P2;PMS_P1;PMS_P2;Temp;Humidity;BMP_temperature;BMP_pressure;BME280_temperature;BME280_humidity;BME280_pressure;Samples;Min_cycle;Max_cycle;Signal;HPM_P1;HPM_P2
2021/11/05 00:02:09;;;;;;;5.75;0.90;;;6.10;99.90;;;;;;5031515;28;20056;-73
2021/11/05 00:04:35;;;;;;;2.58;1.15;;;6.10;99.90;;;;;;5025908;28;20072;-73
2021/11/05 00:07:01;;;;;;;6.15;1.08;;;6.10;99.90;;;;;;5022615;28;20034;-74
2021/11/05 00:09:26;;;;;;;3.78;1.15;;;6.10;99.90;;;;;;5031604;28;20021;-74
2021/11/05 00:11:52;;;;;;;2.00;0.85;;;6.10;99.90;;;;;;5031324;28;20025;-74
2021/11/05 00:14:18;;;;;;;6.07;1.20;;;6.00;99.90;;;;;;5031146;28;20033;-73
2021/11/05 00:16:44;;;;;;;7.43;1.05;;;6.00;99.90;;;;;;5031172;28;20477;-73
2021/11/05 00:19:09;;;;;;;4.57;1.00;;;6.00;99.90;;;;;;5031081;28;20030;-74
2021/11/05 00:21:35;;;;;;;4.93;0.95;;;6.00;99.90;;;;;;5031107;28;20494;-73
2021/11/05 00:24:05;;;;;;;2.72;1.33;;;5.90;99.90;;;;;;5031643;28;20363;-74
2021/11/05 00:26:31;;;;;;;6.35;1.33;;;6.00;99.90;;;;;;5034085;28;20117;-73
2021/11/05 00:28:56;;;;;;;5.40;1.20;;;6.00;99.90;;;;;;5035129;28;20108;-74
2021/11/05 00:31:22;;;;;;;2.70;1.00;;;6.10;99.90;;;;;;5034902;28;20025;-73
2021/11/05 00:33:47;;;;;;;2.47;0.90;;;6.10;99.90;;;;;;5034710;28;20024;-73
2021/11/05 00:36:15;;;;;;;6.97;1.13;;;6.00;99.90;;;;;;5034566;28;20060;-73
2021/11/05 00:38:43;;;;;;;2.58;1.20;;;6.00;99.90;;;;;;5035039;28;20017;-73
2021/11/05 00:41:09;;;;;;;1.40;0.85;;;6.00;99.90;;;;;;5034262;28;20132;-73
2021/11/05 00:43:34;;;;;;;2.45;0.85;;;5.90;99.90;;;;;;5034435;28;20052;-73
2021/11/05 00:46:00;;;;;;;1.95;0.98;;;5.90;99.90;;;;;;5035225;28;20163;-73
2021/11/05 00:48:25;;;;;;;3.40;1.10;;;5.90;99.90;;;;;;5034129;28;20049;-72
2021/11/05 00:50:51;;;;;;;2.30;0.85;;;6.00;99.90;;;;;;5034790;28;20088;-75
2021/11/05 00:53:17;;;;;;;5.72;0.90;;;5.90;99.90;;;;;;5034663;28;20386;-74
2021/11/05 00:55:42;;;;;;;3.75;0.80;;;5.90;99.90;;;;;;5034179;28;20052;-74
2021/11/05 00:58:08;;;;;;;2.28;0.80;;;5.90;99.90;;;;;;5034402;28;20481;-74
2021/11/05 01:00:34;;;;;;;4.00;0.63;;;5.80;99.90;;;;;;5033782;28;20033;-73
2021/11/05 01:03:00;;;;;;;6.38;1.25;;;5.80;99.90;;;;;;5034386;28;20029;-73
2021/11/05 01:05:25;;;;;;;3.10;1.02;;;5.70;99.90;;;;;;5033832;28;20021;-74
2021/11/05 01:07:51;;;;;;;2.95;0.82;;;5.80;99.90;;;;;;5033882;28;20140;-74
2021/11/05 01:10:17;;;;;;;5.88;1.67;;;5.90;99.90;;;;;;5034321;28;20370;-73
2021/11/05 01:12:43;;;;;;;1.75;1.00;;;5.90;99.90;;;;;;5033685;28;20097;-73
2021/11/05 01:15:10;;;;;;;3.47;0.93;;;5.90;99.90;;;;;;5033844;28;20036;-73
2021/11/05 01:17:37;;;;;;;2.97;0.80;;;5.90;99.90;;;;;;5033568;28;20462;-72
2021/11/05 01:20:12;;;;;;;5.38;0.90;;;5.80;99.90;;;;;;5034241;28;20484;-73
2021/11/05 01:22:37;;;;;;;2.67;0.75;;;5.80;99.90;;;;;;5033424;28;20108;-74
2021/11/05 01:25:03;;;;;;;11.30;1.20;;;5.80;99.90;;;;;;5033817;28;20125;-72
2021/11/05 01:27:29;;;;;;;4.35;0.80;;;5.80;99.90;;;;;;5036301;28;20049;-73
2021/11/05 01:29:58;;;;;;;6.78;0.90;;;5.80;99.90;;;;;;5034068;28;20458;-74
2021/11/05 01:32:25;;;;;;;3.75;0.60;;;5.90;99.90;;;;;;5033736;28;20018;-74
2021/11/05 01:34:51;;;;;;;3.80;0.88;;;5.90;99.90;;;;;;5034276;28;20052;-74
2021/11/05 01:37:17;;;;;;;10.25;2.25;;;5.90;99.90;;;;;;5032429;28;20034;-73
2021/11/05 01:39:42;;;;;;;4.30;1.13;;;5.80;99.90;;;;;;5033589;28;20036;-74
2021/11/05 01:42:08;;;;;;;3.85;1.05;;;5.80;99.90;;;;;;5033971;28;20040;-74
2021/11/05 01:44:34;;;;;;;2.75;0.70;;;5.80;99.90;;;;;;5033153;28;20017;-74
2021/11/05 01:47:00;;;;;;;1.63;0.98;;;5.80;99.90;;;;;;5033940;28;20029;-73
2021/11/05 01:49:26;;;;;;;4.20;0.70;;;5.80;99.90;;;;;;5033613;28;20064;-74
2021/11/05 01:51:53;;;;;;;2.95;0.93;;;5.80;99.90;;;;;;5033390;28;20030;-73
2021/11/05 01:54:19;;;;;;;4.40;0.88;;;5.90;99.90;;;;;;5033509;28;20025;-74
2021/11/05 01:56:46;;;;;;;6.50;0.75;;;5.90;99.90;;;;;;5033249;28;20047;-74
2021/11/05 01:59:33;;;;;;;4.38;0.65;;;5.80;99.90;;;;;;5033675;28;20031;-73
2021/11/05 02:02:01;;;;;;;5.57;0.88;;;5.70;99.90;;;;;;5033048;28;20048;-73
2021/11/05 02:04:26;;;;;;;3.40;0.60;;;5.80;99.90;;;;;;5032652;28;20028;-73
2021/11/05 02:06:53;;;;;;;1.83;0.95;;;5.80;99.90;;;;;;5033097;28;20025;-73
2021/11/05 02:09:22;;;;;;;3.13;0.73;;;5.80;99.90;;;;;;5033063;28;20029;-72
2021/11/05 02:11:49;;;;;;;3.80;0.60;;;5.70;99.90;;;;;;5033272;28;20033;-73
2021/11/05 02:14:18;;;;;;;5.35;1.30;;;5.70;99.90;;;;;;5032601;28;20014;-73
2021/11/05 02:16:47;;;;;;;2.88;0.90;;;5.60;99.90;;;;;;5032827;28;20413;-73
2021/11/05 02:19:15;;;;;;;5.43;0.93;;;5.70;99.90;;;;;;5032324;28;20038;-73
2021/11/05 02:21:42;;;;;;;3.70;1.23;;;5.70;99.90;;;;;;5032349;28;20033;-73
2021/11/05 02:24:09;;;;;;;1.77;0.55;;;5.70;99.90;;;;;;5033266;28;20018;-72
2021/11/05 02:26:36;;;;;;;1.95;0.60;;;5.70;99.90;;;;;;5032365;28;20075;-72
2021/11/05 02:29:02;;;;;;;5.93;0.63;;;5.70;99.90;;;;;;5020192;28;20026;-74
2021/11/05 02:31:28;;;;;;;4.30;0.70;;;5.70;99.90;;;;;;5032012;28;20378;-74
2021/11/05 02:33:53;;;;;;;2.50;0.60;;;5.70;99.90;;;;;;5032454;28;20075;-74
2021/11/05 02:36:19;;;;;;;2.28;0.65;;;5.70;99.90;;;;;;5032443;28;20053;-73
2021/11/05 02:38:45;;;;;;;0.98;0.77;;;5.60;99.90;;;;;;5034440;28;20017;-73
2021/11/05 02:41:11;;;;;;;4.22;0.82;;;5.50;99.90;;;;;;5032303;28;20049;-74
2021/11/05 02:43:37;;;;;;;4.22;0.50;;;5.50;99.90;;;;;;5032632;28;20024;-74
2021/11/05 02:46:03;;;;;;;8.60;0.75;;;5.50;99.90;;;;;;5032214;28;20436;-74
2021/11/05 02:48:31;;;;;;;4.60;0.88;;;5.50;99.90;;;;;;5031940;28;20032;-74
2021/11/05 02:50:56;;;;;;;1.48;0.60;;;5.50;99.90;;;;;;5032896;28;20060;-75
2021/11/05 02:53:22;;;;;;;2.42;0.52;;;5.50;99.90;;;;;;5031718;28;20053;-74
2021/11/05 02:55:48;;;;;;;4.47;0.68;;;5.40;99.90;;;;;;5032217;28;20104;-74
2021/11/05 02:58:13;;;;;;;2.15;0.57;;;5.40;99.90;;;;;;5032445;28;20029;-74
2021/11/05 03:00:42;;;;;;;3.60;0.63;;;5.40;99.90;;;;;;5031845;28;20380;-75
2021/11/05 03:03:08;;;;;;;1.65;0.60;;;5.30;99.90;;;;;;5031291;28;20389;-74
2021/11/05 03:05:34;;;;;;;2.05;0.75;;;5.30;99.90;;;;;;5032040;28;20024;-74
2021/11/05 03:07:59;;;;;;;1.85;0.70;;;5.40;99.90;;;;;;5031626;28;20038;-74
2021/11/05 03:10:25;;;;;;;1.73;0.75;;;5.40;99.90;;;;;;5031703;28;20032;-75
2021/11/05 03:12:51;;;;;;;3.10;0.90;;;5.40;99.90;;;;;;5032132;28;20481;-74
2021/11/05 03:15:16;;;;;;;2.45;0.80;;;5.40;99.90;;;;;;5031621;28;20076;-74
2021/11/05 03:17:42;;;;;;;2.65;0.70;;;5.40;99.90;;;;;;5031541;28;20049;-74
2021/11/05 03:20:12;;;;;;;3.97;0.73;;;5.40;99.90;;;;;;5032071;28;20065;-74
2021/11/05 03:22:38;;;;;;;7.78;1.15;;;5.40;99.90;;;;;;5031397;28;20377;-74
2021/11/05 03:25:08;;;;;;;5.97;0.80;;;5.50;99.90;;;;;;5031617;28;20033;-73
2021/11/05 03:27:34;;;;;;;4.32;0.80;;;5.50;99.90;;;;;;5031761;28;20028;-73
2021/11/05 03:30:00;;;;;;;2.88;0.45;;;5.50;99.90;;;;;;5031740;28;20029;-73
2021/11/05 03:32:26;;;;;;;1.65;0.70;;;4.90;99.90;;;;;;5031651;28;20025;-75
2021/11/05 03:34:51;;;;;;;1.02;0.52;;;5.40;99.90;;;;;;5032516;28;20354;-73
2021/11/05 03:37:17;;;;;;;4.13;0.93;;;5.30;99.90;;;;;;5031844;28;20052;-73
2021/11/05 03:39:42;;;;;;;8.20;1.02;;;5.30;99.90;;;;;;5031805;28;20485;-74
2021/11/05 03:42:08;;;;;;;4.18;0.73;;;5.40;99.90;;;;;;5032221;28;20037;-73
2021/11/05 03:44:34;;;;;;;8.35;1.67;;;5.40;99.90;;;;;;5031582;28;20014;-73
2021/11/05 03:47:00;;;;;;;6.32;0.88;;;5.40;99.90;;;;;;5032175;28;20088;-73
2021/11/05 03:49:29;;;;;;;3.95;0.90;;;5.30;99.90;;;;;;5031599;28;20453;-74
2021/11/05 03:51:56;;;;;;;4.25;0.70;;;5.30;99.90;;;;;;5032032;28;20430;-74
2021/11/05 03:54:22;;;;;;;6.18;0.93;;;5.20;99.90;;;;;;5031419;28;20458;-74
2021/11/05 03:56:48;;;;;;;1.73;0.70;;;5.20;99.90;;;;;;5031506;28;20030;-73
2021/11/05 03:59:14;;;;;;;3.45;0.82;;;5.10;99.90;;;;;;5031291;28;20024;-74
2021/11/05 04:01:41;;;;;;;1.92;0.50;;;5.10;99.90;;;;;;5035327;28;20042;-72
2021/11/05 04:04:07;;;;;;;1.23;0.50;;;5.00;99.90;;;;;;5035372;28;20022;-74
2021/11/05 04:06:32;;;;;;;3.83;0.90;;;5.00;99.90;;;;;;5035217;28;20026;-74
2021/11/05 04:08:58;;;;;;;1.30;0.60;;;4.90;99.90;;;;;;5035680;28;20021;-74
2021/11/05 04:11:24;;;;;;;1.95;0.70;;;4.80;99.90;;;;;;5034761;28;20028;-73
2021/11/05 04:13:50;;;;;;;1.95;0.55;;;4.90;99.90;;;;;;5035834;28;20021;-73
2021/11/05 04:16:16;;;;;;;2.63;0.85;;;4.90;99.90;;;;;;5035547;28;20021;-73
2021/11/05 04:18:42;;;;;;;3.60;2.15;;;4.80;99.90;;;;;;5034538;28;20037;-72
2021/11/05 04:21:07;;;;;;;4.07;0.70;;;4.80;99.90;;;;;;5035084;28;20037;-72
2021/11/05 04:23:36;;;;;;;0.80;0.38;;;4.80;99.90;;;;;;5034824;28;20021;-72
2021/11/05 04:26:03;;;;;;;3.58;0.90;;;4.90;99.90;;;;;;5034619;28;20025;-74
2021/11/05 04:28:29;;;;;;;3.65;0.60;;;4.80;99.90;;;;;;5034524;28;20017;-74
2021/11/05 04:30:55;;;;;;;1.23;0.40;;;4.80;99.90;;;;;;5035253;28;20492;-73
2021/11/05 04:33:20;;;;;;;3.22;1.58;;;4.70;99.90;;;;;;5033901;28;20033;-73
2021/11/05 04:35:46;;;;;;;4.30;0.80;;;4.70;99.90;;;;;;5034721;28;20037;-74
2021/11/05 04:38:12;;;;;;;5.57;1.45;;;4.70;99.90;;;;;;5034775;28;20029;-74
2021/11/05 04:40:38;;;;;;;3.65;1.00;;;4.80;99.90;;;;;;5033719;28;20041;-74
2021/11/05 04:43:04;;;;;;;7.03;0.80;;;4.80;99.90;;;;;;5036132;28;20390;-74
2021/11/05 04:45:30;;;;;;;1.90;0.60;;;4.90;99.90;;;;;;5034064;28;20098;-74
2021/11/05 04:47:56;;;;;;;2.15;0.50;;;4.90;99.90;;;;;;5034842;28;20195;-74
2021/11/05 04:50:22;;;;;;;4.22;0.70;;;5.00;99.90;;;;;;5034110;28;20056;-74
2021/11/05 04:52:48;;;;;;;1.98;0.85;;;5.00;99.90;;;;;;5034472;28;20068;-73
2021/11/05 04:55:18;;;;;;;1.95;0.77;;;5.10;99.90;;;;;;5034764;28;20137;-74
2021/11/05 04:57:49;;;;;;;5.47;1.40;;;5.10;99.90;;;;;;5020768;28;20032;-73
2021/11/05 05:00:15;;;;;;;;;;;5.10;99.90;;;;;;5034983;28;20033;-74
2021/11/05 05:02:41;;;;;;;13.77;1.13;;;5.20;99.90;;;;;;5034178;28;19905;-73
2021/11/05 05:05:07;;;;;;;4.15;1.30;;;5.30;99.90;;;;;;5034751;28;20120;-73
2021/11/05 05:07:33;;;;;;;3.35;1.13;;;5.40;99.90;;;;;;5033783;28;20026;-72
2021/11/05 05:09:58;;;;;;;4.80;1.00;;;5.40;99.90;;;;;;5034235;28;20127;-73
2021/11/05 05:12:24;;;;;;;8.13;1.17;;;5.60;99.90;;;;;;5032864;28;20105;-73
2021/11/05 05:14:50;;;;;;;3.13;1.38;;;5.60;99.90;;;;;;5034188;28;20017;-73
2021/11/05 05:17:16;;;;;;;10.52;1.30;;;5.60;99.90;;;;;;5033287;28;20055;-73
2021/11/05 05:19:41;;;;;;;9.63;1.20;;;5.70;99.90;;;;;;5033910;28;20537;-73
2021/11/05 05:22:10;;;;;;;4.28;0.80;;;5.70;99.90;;;;;;5033683;28;20044;-73
2021/11/05 05:24:36;;;;;;;5.47;1.45;;;5.70;99.90;;;;;;5034881;28;20032;-74
2021/11/05 05:27:02;;;;;;;7.57;1.40;;;5.70;99.90;;;;;;5034165;28;20037;-74
2021/11/05 05:29:28;;;;;;;6.57;2.10;;;5.70;99.90;;;;;;5033423;28;20022;-73
2021/11/05 05:31:54;;;;;;;4.70;1.35;;;5.80;99.90;;;;;;5033840;28;20025;-74
2021/11/05 05:34:20;;;;;;;14.63;2.13;;;5.70;99.90;;;;;;5033896;28;20103;-74
2021/11/05 05:36:45;;;;;;;8.80;2.25;;;5.70;99.90;;;;;;5033457;28;20139;-76
2021/11/05 05:39:11;;;;;;;4.93;2.05;;;5.70;99.90;;;;;;5036171;28;20032;-73
2021/11/05 05:41:37;;;;;;;12.68;2.40;;;5.70;99.90;;;;;;5034612;28;20061;-74
2021/11/05 05:44:04;;;;;;;14.45;3.28;;;5.70;99.90;;;;;;5034727;28;20029;-74
2021/11/05 05:46:29;;;;;;;12.30;2.95;;;5.70;99.90;;;;;;5033987;28;20078;-74
2021/11/05 05:48:55;;;;;;;4.43;2.33;;;5.70;99.90;;;;;;5033515;28;20100;-75
2021/11/05 05:51:21;;;;;;;10.40;2.90;;;5.70;99.90;;;;;;5033000;28;20076;-74
2021/11/05 05:53:46;;;;;;;11.52;2.85;;;5.80;99.90;;;;;;5033740;28;20026;-73
2021/11/05 05:56:13;;;;;;;3.35;2.00;;;5.80;99.90;;;;;;5033388;28;20537;-74
2021/11/05 05:58:38;;;;;;;8.57;1.67;;;5.80;99.90;;;;;;5033440;28;20044;-74
2021/11/05 06:01:04;;;;;;;7.90;1.73;;;5.80;99.90;;;;;;5033828;28;20474;-74
2021/11/05 06:03:30;;;;;;;5.90;1.63;;;5.80;99.90;;;;;;5032586;28;20095;-73
2021/11/05 06:05:55;;;;;;;6.90;2.10;;;5.80;99.90;;;;;;5032983;28;20112;-73
2021/11/05 06:08:21;;;;;;;11.60;1.83;;;5.80;99.90;;;;;;5034269;28;20024;-74
2021/11/05 06:10:47;;;;;;;4.20;1.67;;;5.80;99.90;;;;;;5033079;28;20025;-74
2021/11/05 06:13:12;;;;;;;7.20;1.50;;;5.80;99.90;;;;;;5033248;28;20277;-74
2021/11/05 06:15:38;;;;;;;9.15;1.90;;;5.90;99.90;;;;;;5033111;28;20116;-73
2021/11/05 06:18:04;;;;;;;7.50;3.30;;;5.80;99.90;;;;;;5032554;28;20072;-74
2021/11/05 06:20:29;;;;;;;4.22;1.50;;;5.80;99.90;;;;;;5031678;28;20382;-74
2021/11/05 06:22:55;;;;;;;5.78;1.65;;;5.80;99.90;;;;;;5030924;28;20045;-74
2021/11/05 06:25:21;;;;;;;16.92;2.25;;;5.80;99.90;;;;;;5030555;28;20108;-74
2021/11/05 06:27:46;;;;;;;6.57;2.17;;;5.90;99.90;;;;;;5031102;28;20492;-72
2021/11/05 06:30:13;;;;;;;7.07;1.80;;;5.90;99.90;;;;;;5029888;28;20017;-73
2021/11/05 06:32:40;;;;;;;6.50;1.70;;;5.80;99.90;;;;;;5030381;28;20104;-74
2021/11/05 06:35:07;;;;;;;5.88;1.65;;;5.80;99.90;;;;;;5030400;28;20061;-73
2021/11/05 06:37:34;;;;;;;7.47;1.75;;;5.80;99.90;;;;;;5030920;28;20108;-74
2021/11/05 06:39:59;;;;;;;6.78;2.17;;;5.90;99.90;;;;;;5027426;28;20102;-73
2021/11/05 06:42:26;;;;;;;5.63;1.38;;;5.90;99.90;;;;;;5030725;28;20093;-74
2021/11/05 06:44:52;;;;;;;8.88;1.45;;;6.00;99.90;;;;;;5030507;28;20048;-75
2021/11/05 06:47:21;;;;;;;5.32;1.50;;;6.00;99.90;;;;;;5030002;28;20485;-74
2021/11/05 06:49:46;;;;;;;7.70;1.63;;;6.00;99.90;;;;;;5030086;28;20025;-73
2021/11/05 06:52:12;;;;;;;3.60;1.67;;;6.00;99.90;;;;;;5029808;28;20029;-73
2021/11/05 06:54:40;;;;;;;9.27;1.50;;;5.90;99.90;;;;;;5030127;28;20020;-73
2021/11/05 06:57:07;;;;;;;3.90;1.38;;;5.90;99.90;;;;;;5031345;28;20025;-73
2021/11/05 06:59:34;;;;;;;2.50;1.40;;;5.90;99.90;;;;;;5030753;28;20028;-74
2021/11/05 07:02:00;;;;;;;2.53;1.30;;;5.90;99.90;;;;;;5029808;28;20041;-73
2021/11/05 07:04:26;;;;;;;9.95;1.60;;;5.80;99.90;;;;;;5029489;28;20030;-74
2021/11/05 07:06:53;;;;;;;3.97;1.60;;;5.90;99.90;;;;;;5030594;28;20032;-73
2021/11/05 07:09:19;;;;;;;3.40;1.75;;;6.00;99.90;;;;;;5030509;28;20104;-73
2021/11/05 07:11:45;;;;;;;5.72;1.55;;;6.00;99.90;;;;;;5031327;28;20024;-74
2021/11/05 07:14:13;;;;;;;4.72;1.60;;;6.10;99.90;;;;;;5030965;28;20539;-73
2021/11/05 07:16:39;;;;;;;4.35;1.52;;;6.10;99.90;;;;;;5030599;28;20398;-73
2021/11/05 07:19:05;;;;;;;4.70;1.55;;;6.20;99.90;;;;;;5031435;28;20023;-74
2021/11/05 07:21:31;;;;;;;7.35;1.45;;;6.30;99.90;;;;;;5029853;28;20029;-73
2021/11/05 07:24:02;;;;;;;3.50;1.60;;;6.30;99.90;;;;;;5031013;28;20527;-73
2021/11/05 07:26:33;;;;;;;;;;;6.40;99.90;;;;;;5031042;28;20373;-74
2021/11/05 07:29:06;;;;;;;7.72;1.48;;;6.40;99.90;;;;;;5030549;28;19928;-72
2021/11/05 07:31:32;;;;;;;9.05;1.63;;;6.50;99.90;;;;;;5030498;28;20037;-73
2021/11/05 07:33:59;;;;;;;11.90;3.63;;;6.60;99.90;;;;;;5030809;28;20024;-73
2021/11/05 07:36:25;;;;;;;11.07;2.03;;;6.70;99.90;;;;;;5033131;28;20095;-74
2021/11/05 07:38:51;;;;;;;4.53;2.25;;;6.80;99.90;;;;;;5035112;28;20036;-74
2021/11/05 07:41:16;;;;;;;4.57;2.28;;;6.90;99.90;;;;;;5037121;28;20029;-74
2021/11/05 07:43:42;;;;;;;10.10;1.95;;;7.00;99.90;;;;;;5034383;28;20037;-75
2021/11/05 07:46:07;;;;;;;7.55;1.75;;;7.10;99.90;;;;;;5033916;28;20025;-75
2021/11/05 07:48:33;;;;;;;8.55;1.40;;;7.20;99.90;;;;;;5033776;28;20025;-73
2021/11/05 07:50:59;;;;;;;6.43;1.38;;;7.40;99.90;;;;;;5034704;28;20038;-75
2021/11/05 07:53:25;;;;;;;3.05;1.48;;;7.50;99.90;;;;;;5034874;28;20026;-74
2021/11/05 07:55:51;;;;;;;7.00;2.08;;;7.60;99.90;;;;;;5034769;28;20040;-73
2021/11/05 07:58:16;;;;;;;10.40;2.42;;;7.60;99.90;;;;;;5035029;28;20040;-75
2021/11/05 08:00:42;;;;;;;6.05;1.80;;;7.60;99.90;;;;;;5034427;28;20560;-74
2021/11/05 08:03:07;;;;;;;5.55;1.67;;;7.60;99.90;;;;;;5034607;28;20040;-77
2021/11/05 08:05:33;;;;;;;6.35;1.80;;;7.60;99.90;;;;;;5034767;28;20064;-77
2021/11/05 08:07:59;;;;;;;5.10;2.05;;;7.70;99.90;;;;;;5035191;28;20528;-78
2021/11/05 08:10:25;;;;;;;4.80;1.23;;;7.70;99.90;;;;;;5035183;28;20029;-77
2021/11/05 08:12:51;;;;;;;8.07;1.60;;;7.90;99.90;;;;;;5035800;28;20041;-78
2021/11/05 08:15:20;;;;;;;9.77;1.52;;;8.10;99.90;;;;;;5034157;28;20017;-76
2021/11/05 08:17:46;;;;;;;8.60;1.45;;;8.00;99.90;;;;;;5035228;28;20033;-78
2021/11/05 08:20:13;;;;;;;4.85;1.73;;;8.00;99.90;;;;;;5035756;28;20462;-76
2021/11/05 08:22:39;;;;;;;8.50;1.63;;;7.90;99.90;;;;;;5037176;28;20087;-79
2021/11/05 08:25:05;;;;;;;12.70;1.92;;;7.90;99.90;;;;;;5036020;28;20024;-78
2021/11/05 08:27:31;;;;;;;11.13;1.83;;;7.90;99.90;;;;;;5036135;28;20462;-77
2021/11/05 08:29:56;;;;;;;10.20;2.22;;;7.90;99.90;;;;;;5033987;28;20022;-76
2021/11/05 08:32:22;;;;;;;6.25;1.50;;;7.90;99.90;;;;;;5031802;28;20402;-76
2021/11/05 08:34:48;;;;;;;9.52;2.78;;;7.90;99.90;;;;;;5035286;28;20075;-77
2021/11/05 08:37:13;;;;;;;4.25;2.15;;;8.00;99.90;;;;;;5037198;28;20025;-77
2021/11/05 08:39:39;;;;;;;5.68;4.28;;;7.90;99.90;;;;;;5034668;28;20708;-77
2021/11/05 08:42:05;;;;;;;17.20;8.00;;;7.90;99.90;;;;;;5035283;28;20425;-78
2021/11/05 08:44:32;;;;;;;10.77;6.10;;;8.00;99.90;;;;;;5035244;28;20018;-74
2021/11/05 08:46:58;;;;;;;10.68;4.93;;;8.10;99.90;;;;;;5033706;28;20034;-76
2021/11/05 08:49:24;;;;;;;7.35;3.45;;;8.10;99.90;;;;;;5034498;28;20025;-78
2021/11/05 08:51:51;;;;;;;5.72;2.80;;;8.10;99.90;;;;;;5034883;28;20032;-75
2021/11/05 08:54:16;;;;;;;6.47;2.72;;;8.30;99.90;;;;;;5030391;28;20029;-74
2021/11/05 08:56:43;;;;;;;10.88;2.88;;;8.40;99.90;;;;;;5035488;28;20047;-76
2021/11/05 08:59:11;;;;;;;11.77;2.72;;;8.40;99.90;;;;;;5034598;28;20021;-76
2021/11/05 09:01:37;;;;;;;13.02;2.97;;;8.60;99.90;;;;;;5033861;28;20033;-76
2021/11/05 09:04:03;;;;;;;10.23;2.88;;;8.80;99.90;;;;;;5035338;28;20037;-75
2021/11/05 09:06:28;;;;;;;6.95;2.50;;;8.90;99.90;;;;;;5034219;28;20462;-74
2021/11/05 09:08:59;;;;;;;10.50;2.60;;;9.00;99.90;;;;;;5035452;28;20101;-76
2021/11/05 09:11:25;;;;;;;16.95;2.53;;;9.20;99.90;;;;;;5025261;28;20079;-78
2021/11/05 09:13:51;;;;;;;9.20;2.22;;;9.40;99.90;;;;;;5038700;28;20030;-76
2021/11/05 09:16:17;;;;;;;7.90;2.42;;;9.50;99.90;;;;;;5035338;28;20044;-77
2021/11/05 09:18:43;;;;;;;4.43;2.63;;;9.60;99.90;;;;;;5034976;28;20045;-75
2021/11/05 09:21:08;;;;;;;6.22;2.35;;;9.80;99.90;;;;;;5033920;28;20072;-76
2021/11/05 09:23:34;;;;;;;8.05;2.40;;;9.70;99.90;;;;;;5033421;28;20071;-74
2021/11/05 09:26:03;;;;;;;10.18;2.60;;;9.80;99.90;;;;;;5033495;28;20034;-75
2021/11/05 09:28:28;;;;;;;10.85;2.65;;;9.80;99.90;;;;;;5033414;28;20530;-75
2021/11/05 09:30:57;;;;;;;8.35;3.00;;;9.90;99.90;;;;;;5028375;28;20113;-76
2021/11/05 09:33:23;;;;;;;7.85;2.30;;;10.10;99.90;;;;;;5022934;28;20043;-77
2021/11/05 09:35:48;;;;;;;8.45;2.90;;;10.10;99.90;;;;;;5025425;28;20041;-77
2021/11/05 09:38:14;;;;;;;9.30;2.30;;;10.20;99.90;;;;;;5021937;28;20022;-76
2021/11/05 09:40:40;;;;;;;2.33;1.70;;;10.20;99.90;;;;;;5019603;28;20022;-76
2021/11/05 09:43:06;;;;;;;10.15;2.58;;;10.20;99.90;;;;;;5025206;28;20026;-77
2021/11/05 09:45:32;;;;;;;8.00;2.08;;;10.20;99.90;;;;;;5027211;28;20492;-77
2021/11/05 09:47:59;;;;;;;6.65;2.72;;;10.30;99.90;;;;;;5025897;28;20049;-77
2021/11/05 09:50:26;;;;;;;6.70;2.60;;;10.40;99.90;;;;;;5030397;28;20025;-76
2021/11/05 09:52:51;;;;;;;8.23;2.13;;;10.50;99.90;;;;;;5027216;28;20032;-77
2021/11/05 09:55:19;;;;;;;14.45;2.10;;;10.70;99.90;;;;;;5028429;28;20445;-74
2021/11/05 09:57:46;;;;;;;5.03;1.88;;;10.90;99.90;;;;;;5028300;28;20029;-76
2021/11/05 10:00:15;;;;;;;8.95;1.67;;;11.00;99.90;;;;;;5017241;28;20506;-76
2021/11/05 10:02:43;;;;;;;7.97;1.70;;;11.00;99.90;;;;;;5017460;28;20482;-75
2021/11/05 10:05:11;;;;;;;11.18;2.10;;;11.00;99.90;;;;;;5024903;28;20022;-77
2021/11/05 10:07:54;;;;;;;5.75;1.98;;;11.10;99.90;;;;;;5027102;28;20037;-76
2021/11/05 10:10:39;;;;;;;13.73;2.22;;;11.10;99.90;;;;;;5021560;28;20041;-75
2021/11/05 10:13:07;;;;;;;5.78;2.08;;;11.20;99.90;;;;;;5026672;28;20500;-76
2021/11/05 10:15:41;;;;;;;8.80;2.20;;;11.30;99.90;;;;;;5021586;28;20041;-76
2021/11/05 10:18:17;;;;;;;5.88;1.73;;;11.30;99.90;;;;;;5021145;28;20100;-77
2021/11/05 10:20:45;;;;;;;8.23;1.38;;;11.40;99.90;;;;;;5023401;28;20560;-77
2021/11/05 10:23:11;;;;;;;6.75;1.52;;;11.50;99.90;;;;;;5028592;28;20026;-76
2021/11/05 10:25:40;;;;;;;3.30;1.23;;;11.60;99.90;;;;;;5014324;28;20026;-76
2021/11/05 10:28:18;;;;;;;10.73;1.42;;;11.60;99.90;;;;;;5022516;28;20033;-77
2021/11/05 10:30:43;;;;;;;5.35;0.90;;;11.70;99.90;;;;;;5024626;28;20029;-76
2021/11/05 10:33:11;;;;;;;6.22;1.63;;;11.70;99.90;;;;;;5018135;28;20025;-76
2021/11/05 10:35:39;;;;;;;3.63;0.90;;;11.70;99.90;;;;;;5023535;28;20089;-76
2021/11/05 10:38:08;;;;;;;4.32;0.50;;;11.80;99.90;;;;;;5026501;28;20114;-76
2021/11/05 10:40:55;;;;;;;2.78;0.50;;;11.80;99.90;;;;;;5021048;28;20034;-77
2021/11/05 10:43:34;;;;;;;6.90;0.70;;;11.80;99.90;;;;;;5024570;28;20060;-76
2021/11/05 10:46:01;;;;;;;2.78;0.57;;;11.70;99.90;;;;;;5024971;28;20381;-78
2021/11/05 10:48:30;;;;;;;2.97;0.50;;;11.60;99.90;;;;;;5022776;28;20031;-76
2021/11/05 10:50:58;;;;;;;2.47;0.43;;;11.40;99.90;;;;;;5024207;28;20042;-75
2021/11/05 10:53:32;;;;;;;3.55;0.40;;;11.40;99.90;;;;;;5023232;28;20072;-74
2021/11/05 10:56:03;;;;;;;5.20;0.60;;;11.30;99.90;;;;;;5029286;28;20100;-73
2021/11/05 10:58:31;;;;;;;6.53;0.70;;;11.30;99.90;;;;;;5018874;28;20034;-75
2021/11/05 11:01:20;;;;;;;8.07;0.60;;;11.40;99.90;;;;;;5023328;28;20041;-76
2021/11/05 11:03:48;;;;;;;0.63;0.30;;;11.60;99.90;;;;;;5029899;28;20106;-75
2021/11/05 11:06:19;;;;;;;2.53;0.63;;;11.70;99.90;;;;;;5028328;28;20061;-74
2021/11/05 11:08:59;;;;;;;3.70;0.30;;;11.70;99.90;;;;;;5024571;28;20096;-74
2021/11/05 11:11:35;;;;;;;2.65;0.40;;;11.80;99.90;;;;;;5021587;28;20025;-75
2021/11/05 11:14:03;;;;;;;2.78;0.30;;;11.80;99.90;;;;;;5026699;28;20018;-74
2021/11/05 11:16:34;;;;;;;2.55;0.30;;;11.80;99.90;;;;;;5025117;28;20167;-77
2021/11/05 11:19:06;;;;;;;0.82;0.32;;;11.80;99.90;;;;;;5025034;28;20355;-75
2021/11/05 11:21:36;;;;;;;2.85;1.50;;;11.80;99.90;;;;;;5022518;28;20121;-75
2021/11/05 11:24:08;;;;;;;3.75;0.60;;;11.80;99.90;;;;;;5030748;28;20021;-75
2021/11/05 11:26:36;;;;;;;1.67;0.40;;;11.70;99.90;;;;;;5023743;28;20038;-80
2021/11/05 11:29:03;;;;;;;2.25;0.60;;;11.70;99.90;;;;;;5023103;28;20508;-74
2021/11/05 11:31:29;;;;;;;4.32;0.45;;;11.70;99.90;;;;;;5028231;28;20048;-77
2021/11/05 11:34:01;;;;;;;0.55;0.30;;;11.70;99.90;;;;;;5022855;28;20474;-75
2021/11/05 11:36:27;;;;;;;3.55;0.60;;;11.60;99.90;;;;;;5028693;28;20120;-81
2021/11/05 11:38:53;;;;;;;2.45;0.50;;;11.50;99.90;;;;;;5024392;28;20030;-75
2021/11/05 11:41:20;;;;;;;7.57;0.55;;;11.50;99.90;;;;;;5028856;28;20050;-76
2021/11/05 11:43:53;;;;;;;3.75;0.60;;;11.50;99.90;;;;;;5019888;28;20105;-78
2021/11/05 11:46:18;;;;;;;1.52;0.70;;;11.60;99.90;;;;;;5023033;28;20029;-75
2021/11/05 11:48:56;;;;;;;3.25;0.38;;;11.70;99.90;;;;;;5017457;28;20022;-77
2021/11/05 11:51:29;;;;;;;4.47;0.57;;;11.90;99.90;;;;;;5018424;28;20052;-75
2021/11/05 11:54:13;;;;;;;3.38;0.52;;;12.00;99.90;;;;;;5020597;28;20099;-75
2021/11/05 11:56:41;;;;;;;0.28;0.22;;;12.00;99.90;;;;;;5024947;28;20044;-77
2021/11/05 11:59:11;;;;;;;3.80;0.52;;;12.20;99.90;;;;;;5013717;28;20105;-76
2021/11/05 12:01:40;;;;;;;4.88;0.65;;;12.20;99.90;;;;;;5023093;28;20658;-76
2021/11/05 12:04:08;;;;;;;1.92;0.30;;;12.20;99.90;;;;;;5023709;28;20030;-76
2021/11/05 12:06:46;;;;;;;3.35;0.50;;;12.20;99.90;;;;;;5023922;28;20501;-75
2021/11/05 12:09:28;;;;;;;2.90;0.60;;;12.30;99.90;;;;;;5022577;28;20026;-76
2021/11/05 12:12:29;;;;;;;5.78;0.82;;;12.40;99.90;;;;;;5028542;28;20442;-76
2021/11/05 12:15:01;;;;;;;3.40;0.70;;;12.40;99.90;;;;;;5026285;28;20430;-77
2021/11/05 12:17:50;;;;;;;8.50;0.50;;;12.40;99.90;;;;;;5025328;28;20029;-75
2021/11/05 12:20:24;;;;;;;2.70;0.70;;;12.30;99.90;;;;;;5017703;28;20112;-75
2021/11/05 12:23:27;;;;;;;2.30;0.80;;;12.20;99.90;;;;;;5028006;28;20532;-76
2021/11/05 12:26:02;;;;;;;4.72;0.85;;;12.20;99.90;;;;;;4927483;29;20028;-77
2021/11/05 12:28:41;;;;;;;3.13;0.85;;;12.30;99.90;;;;;;5007248;28;20510;-77
2021/11/05 12:31:35;;;;;;;8.35;1.80;;;12.40;99.90;;;;;;5024569;28;20108;-77
2021/11/05 12:34:19;;;;;;;9.32;0.82;;;12.50;99.90;;;;;;5025032;28;20068;-76
2021/11/05 12:36:53;;;;;;;8.18;1.00;;;12.70;99.90;;;;;;5029642;28;20056;-77
2021/11/05 12:39:33;;;;;;;5.70;1.05;;;12.80;99.90;;;;;;5030943;28;20381;-75
2021/11/05 12:42:04;;;;;;;2.25;0.52;;;12.70;99.90;;;;;;5018830;28;20545;-76
2021/11/05 12:45:03;;;;;;;4.85;0.60;;;12.70;99.90;;;;;;5024109;28;20033;-75
2021/11/05 12:47:48;;;;;;;3.70;0.93;;;12.70;99.90;;;;;;5020150;28;20069;-76
2021/11/05 12:50:36;;;;;;;4.80;0.75;;;12.80;99.90;;;;;;5031588;28;20033;-76
2021/11/05 12:53:05;;;;;;;3.03;0.45;;;12.80;99.90;;;;;;5022804;28;20092;-76
2021/11/05 12:55:34;;;;;;;6.07;0.70;;;12.80;99.90;;;;;;5028798;28;20363;-76
2021/11/05 12:58:02;;;;;;;4.53;0.60;;;12.90;99.90;;;;;;5024158;28;20033;-76